Time;durP1;ratioP1;P1;durP2;ratioP2;P2;SDS_P1;SDS_P2;PMS_P1;PMS_P2;Temp;Humidity;BMP_temperature;BMP_pressure;BME280_temperature;BME280_humidity;BME280_pressure;Samples;Min_cycle;Max_cycle;Signal;HPM_P1;HPM_P2
2022/01/29 00:01:05;;;;;;;4.75;4.22;;;;;;;17.63;42.87;102705.03;5106661;28;20020;-50
2022/01/29 00:03:35;;;;;;;4.80;3.65;;;;;;;17.63;42.87;102704.16;5106465;28;20583;-48
2022/01/29 00:06:01;;;;;;;5.53;3.75;;;;;;;17.60;43.02;102670.28;5105876;28;20052;-48
2022/01/29 00:08:26;;;;;;;5.60;4.13;;;;;;;17.59;43.00;102663.19;5106139;28;20400;-50
2022/01/29 00:11:01;;;;;;;4.32;3.90;;;;;;;17.57;42.91;102672.34;5105678;28;20032;-47
2022/01/29 00:13:26;;;;;;;5.65;4.35;;;;;;;17.56;42.73;102676.00;5106348;28;20084;-48
2022/01/29 00:15:51;;;;;;;5.25;4.00;;;;;;;17.54;43.00;102678.78;5105845;28;20606;-49
2022/01/29 00:18:16;;;;;;;3.95;3.42;;;;;;;17.58;42.81;102665.97;5105670;28;20031;-50
2022/01/29 00:20:41;;;;;;;4.55;3.58;;;;;;;17.57;42.69;102664.28;5105940;28;20028;-47
2022/01/29 00:23:07;;;;;;;4.53;4.03;;;;;;;17.56;42.98;102663.41;5105531;28;20032;-47
2022/01/29 00:25:32;;;;;;;4.95;3.38;;;;;;;17.55;42.84;102656.31;5105322;28;20070;-49
2022/01/29 00:27:59;;;;;;;4.70;3.88;;;;;;;17.54;42.78;102657.28;5105686;28;20028;-50
2022/01/29 00:30:30;;;;;;;5.40;3.85;;;;;;;17.53;42.90;102655.56;5105881;28;20024;-51
2022/01/29 00:32:56;;;;;;;3.70;3.15;;;;;;;17.52;42.78;102651.19;5106141;28;20035;-48
2022/01/29 00:35:21;;;;;;;5.30;3.67;;;;;;;17.51;42.71;102625.25;5105737;28;20028;-52
2022/01/29 00:37:47;;;;;;;5.32;3.63;;;;;;;17.48;42.79;102620.97;5104723;28;20051;-46
2022/01/29 00:40:13;;;;;;;5.22;3.50;;;;;;;17.49;42.69;102613.75;5105664;28;20024;-46
2022/01/29 00:42:38;;;;;;;4.38;3.45;;;;;;;17.49;42.69;102619.97;5105264;28;20043;-51
2022/01/29 00:45:06;;;;;;;4.20;3.55;;;;;;;17.48;42.64;102623.66;5087366;28;20044;-52
2022/01/29 00:47:31;;;;;;;4.80;3.78;;;;;;;17.48;42.62;102617.44;5104887;28;20020;-50
2022/01/29 00:49:56;;;;;;;4.65;4.00;;;;;;;17.46;42.79;102617.56;5105455;28;20032;-53
2022/01/29 00:52:21;;;;;;;4.43;3.30;;;;;;;17.46;42.77;102619.38;5086722;28;20032;-51
2022/01/29 00:54:47;;;;;;;4.15;3.33;;;;;;;17.45;42.61;102607.75;5105819;28;20111;-51
2022/01/29 00:57:12;;;;;;;3.47;3.17;;;;;;;17.42;42.80;102607.16;5104554;28;20032;-50
2022/01/29 00:59:37;;;;;;;4.30;3.47;;;;;;;17.44;42.77;102607.88;5087016;28;20074;-49
2022/01/29 01:02:03;;;;;;;4.22;3.28;;;;;;;17.40;42.74;102599.19;5088150;28;20036;-51
2022/01/29 01:04:29;;;;;;;4.80;3.63;;;;;;;17.43;42.62;102606.16;5067173;28;20048;-47
2022/01/29 01:06:54;;;;;;;5.28;3.75;;;;;;;17.43;42.65;102598.97;5083830;28;20032;-50
2022/01/29 01:09:19;;;;;;;4.57;3.65;;;;;;;17.42;42.60;102602.63;5084574;28;20052;-48
2022/01/29 01:11:44;;;;;;;4.32;3.22;;;;;;;17.41;42.40;102597.34;5084305;28;20043;-49
2022/01/29 01:14:09;;;;;;;4.13;3.20;;;;;;;17.40;42.58;102585.75;5092486;28;20034;-50
2022/01/29 01:16:35;;;;;;;3.38;2.90;;;;;;;17.37;42.70;102577.03;5104829;28;20028;-50
2022/01/29 01:19:00;;;;;;;4.30;3.67;;;;;;;17.36;42.64;102569.97;5104587;28;20020;-47
2022/01/29 01:21:26;;;;;;;3.60;3.08;;;;;;;17.38;42.53;102568.88;5104367;28;20026;-49
2022/01/29 01:23:51;;;;;;;4.38;3.25;;;;;;;17.38;42.80;102578.78;5104842;28;20476;-50
2022/01/29 01:26:17;;;;;;;4.35;3.33;;;;;;;17.38;42.66;102571.56;5104098;28;20032;-50
2022/01/29 01:28:43;;;;;;;4.90;3.28;;;;;;;17.36;42.61;102567.28;5086507;28;20032;-46
2022/01/29 01:31:08;;;;;;;3.50;3.20;;;;;;;17.36;42.71;102552.00;5104673;28;20088;-47
2022/01/29 01:33:33;;;;;;;4.10;3.35;;;;;;;17.35;42.70;102546.75;5104998;28;20020;-47
2022/01/29 01:36:02;;;;;;;3.58;3.25;;;;;;;17.34;42.67;102539.66;5104034;28;20024;-51
2022/01/29 01:41:03;;;;;;;3.33;3.03;;;;;;;17.31;42.72;102545.28;5103863;28;19935;-51
2022/01/29 01:43:28;;;;;;;3.30;2.83;;;;;;;17.31;42.67;102537.22;5086879;28;20024;-48
2022/01/29 01:45:54;;;;;;;3.47;3.08;;;;;;;17.29;42.68;102531.97;5104437;28;20039;-46
2022/01/29 01:48:19;;;;;;;4.30;3.40;;;;;;;17.30;42.81;102527.44;5100280;28;20381;-47
2022/01/29 01:50:45;;;;;;;3.40;3.10;;;;;;;17.29;42.65;102523.91;5083933;28;20044;-48
2022/01/29 01:53:10;;;;;;;3.17;2.70;;;;;;;17.29;42.74;102520.31;5083935;28;20039;-48
2022/01/29 01:55:36;;;;;;;4.25;3.65;;;;;;;17.29;42.67;102525.69;5065544;28;20030;-47
2022/01/29 01:58:01;;;;;;;3.53;2.97;;;;;;;17.29;42.80;102523.00;5083776;28;20058;-46
2022/01/29 02:00:27;;;;;;;3.70;2.95;;;;;;;17.27;42.58;102514.22;5064879;28;20485;-48
2022/01/29 02:02:53;;;;;;;3.53;3.05;;;;;;;17.28;42.61;102508.72;5083493;28;20047;-47
2022/01/29 02:05:19;;;;;;;3.15;2.80;;;;;;;17.27;42.76;102507.00;5065519;28;20131;-50
2022/01/29 02:07:45;;;;;;;3.63;3.15;;;;;;;17.23;42.80;102489.41;5064800;28;20036;-50
2022/01/29 02:10:12;;;;;;;3.47;2.90;;;;;;;17.28;42.64;102497.09;5083722;28;20033;-47
2022/01/29 02:12:48;;;;;;;3.13;2.83;;;;;;;17.28;42.71;102492.59;5083367;28;20036;-49
2022/01/29 02:15:14;;;;;;;3.33;2.65;;;;;;;17.26;42.73;102485.63;5101670;28;20040;-48
2022/01/29 02:17:40;;;;;;;3.30;2.75;;;;;;;17.26;42.69;102483.81;5103686;28;20020;-47
2022/01/29 02:20:06;;;;;;;3.20;2.70;;;;;;;17.27;42.73;102472.06;5103807;28;20047;-49
2022/01/29 02:22:31;;;;;;;3.42;2.72;;;;;;;17.27;42.55;102482.81;5103278;28;20051;-49
2022/01/29 02:24:56;;;;;;;3.65;2.78;;;;;;;17.27;42.76;102476.59;5103954;28;20133;-48
2022/01/29 02:27:21;;;;;;;3.00;2.65;;;;;;;17.26;42.74;102478.44;5084730;28;20038;-48
2022/01/29 02:29:49;;;;;;;3.10;2.78;;;;;;;17.23;42.73;102481.34;5103652;28;20138;-52
2022/01/29 02:32:14;;;;;;;3.30;3.00;;;;;;;17.26;42.66;102482.94;5103806;28;20028;-48
2022/01/29 02:34:40;;;;;;;3.47;3.17;;;;;;;17.23;42.68;102479.50;5103830;28;20093;-49
2022/01/29 02:37:06;;;;;;;3.78;2.97;;;;;;;17.23;42.70;102466.06;5102897;28;20080;-46
2022/01/29 02:39:31;;;;;;;3.38;2.88;;;;;;;17.23;42.74;102466.06;5103568;28;20035;-51
2022/01/29 02:41:57;;;;;;;4.22;2.60;;;;;;;17.24;42.71;102472.28;5102613;28;20032;-51
2022/01/29 02:44:23;;;;;;;2.75;2.47;;;;;;;17.23;42.80;102460.69;5103515;28;20028;-49
2022/01/29 02:49:19;;;;;;;3.55;3.00;;;;;;;17.23;42.86;102438.34;5103404;28;20027;-50
2022/01/29 02:51:49;;;;;;;3.72;2.72;;;;;;;17.23;42.83;102446.41;5103147;28;20024;-46
2022/01/29 02:54:14;;;;;;;2.97;2.47;;;;;;;17.23;42.73;102435.66;5085537;28;20088;-49
2022/01/29 02:56:40;;;;;;;2.42;2.22;;;;;;;17.21;42.82;102434.94;5102405;28;20023;-49
2022/01/29 02:59:05;;;;;;;2.50;2.30;;;;;;;17.23;42.64;102438.34;5084551;28;20032;-49
2022/01/29 03:01:30;;;;;;;3.22;2.28;;;;;;;17.22;42.75;102432.09;5103305;28;20024;-47
2022/01/29 03:03:56;;;;;;;3.22;2.40;;;;;;;17.21;42.81;102421.50;5103153;28;20112;-47
2022/01/29 03:06:21;;;;;;;2.72;2.20;;;;;;;17.21;42.75;102421.50;5102675;28;20024;-48
2022/01/29 03:08:47;;;;;;;2.25;2.05;;;;;;;17.22;42.82;102417.81;5103155;28;20032;-50
2022/01/29 03:11:12;;;;;;;2.65;2.45;;;;;;;17.19;42.77;102410.00;5103444;28;20020;-46
2022/01/29 03:13:38;;;;;;;3.20;2.70;;;;;;;17.22;42.81;102409.75;5107280;28;20039;-48
2022/01/29 03:16:03;;;;;;;2.28;2.00;;;;;;;17.22;42.84;102407.91;5107085;28;20028;-47
2022/01/29 03:18:28;;;;;;;2.25;2.05;;;;;;;17.22;42.77;102399.84;5106892;28;20036;-46
2022/01/29 03:20:54;;;;;;;3.75;2.55;;;;;;;17.17;42.77;102391.31;5107122;28;20050;-48
2022/01/29 03:23:19;;;;;;;2.53;1.92;;;;;;;17.20;42.71;102395.56;5106871;28;20035;-50
2022/01/29 03:25:44;;;;;;;2.42;2.08;;;;;;;17.21;42.70;102392.78;5088321;28;20545;-47
2022/01/29 03:28:09;;;;;;;2.38;2.17;;;;;;;17.21;42.85;102386.53;5106837;28;20046;-48
2022/01/29 03:30:35;;;;;;;2.83;2.38;;;;;;;17.20;42.81;102391.06;5106909;28;20027;-51
2022/01/29 03:33:00;;;;;;;2.38;2.15;;;;;;;17.21;42.84;102391.91;5107164;28;20032;-47
2022/01/29 03:35:25;;;;;;;2.35;2.00;;;;;;;17.20;42.77;102388.38;5106812;28;20061;-47
2022/01/29 03:37:50;;;;;;;2.92;2.30;;;;;;;17.20;42.86;102380.31;5106042;28;20024;-48
2022/01/29 03:40:16;;;;;;;2.30;2.10;;;;;;;17.20;42.95;102388.38;5106690;28;20500;-45
2022/01/29 03:42:56;;;;;;;2.85;2.53;;;;;;;17.19;42.84;102380.41;5106127;28;20039;-47
2022/01/29 03:45:21;;;;;;;2.20;1.92;;;;;;;17.17;42.85;102380.56;5106695;28;20411;-47
2022/01/29 03:47:46;;;;;;;2.40;1.95;;;;;;;17.18;42.79;102376.03;5106330;28;20048;-49
2022/01/29 03:50:12;;;;;;;2.30;1.85;;;;;;;17.18;42.84;102379.56;5088343;28;20028;-50
2022/01/29 03:52:37;;;;;;;2.25;1.80;;;;;;;17.14;42.89;102370.03;5105895;28;20036;-48
2022/01/29 03:55:02;;;;;;;2.42;2.20;;;;;;;17.18;42.94;102378.72;5106588;28;20051;-49
2022/01/29 03:57:28;;;;;;;1.90;1.70;;;;;;;17.15;42.79;102379.81;5072571;28;20028;-45
2022/01/29 03:59:53;;;;;;;1.95;1.80;;;;;;;17.17;42.79;102379.69;5086097;28;20025;-48
2022/01/29 04:02:18;;;;;;;2.13;1.92;;;;;;;17.17;42.86;102372.50;5086173;28;20029;-50
2022/01/29 04:04:43;;;;;;;2.25;1.70;;;;;;;17.19;42.93;102377.72;5085982;28;20055;-48
2022/01/29 04:07:11;;;;;;;2.20;2.00;;;;;;;17.17;42.98;102372.50;5085054;28;20032;-49
2022/01/29 04:09:37;;;;;;;2.00;1.80;;;;;;;17.18;42.91;102360.75;5085912;28;20036;-44
2022/01/29 04:12:03;;;;;;;2.50;2.05;;;;;;;17.19;42.97;102364.28;5067431;28;20051;-50
2022/01/29 04:14:35;;;;;;;1.92;1.77;;;;;;;17.18;43.03;102367.97;5102850;28;20024;-49
2022/01/29 04:17:00;;;;;;;2.35;1.98;;;;;;;17.18;43.02;102370.66;5106084;28;20085;-45
2022/01/29 04:19:25;;;;;;;2.15;1.80;;;;;;;17.16;42.96;102360.03;5105764;28;20032;-47
2022/01/29 04:21:50;;;;;;;1.90;1.63;;;;;;;17.16;42.85;102361.84;5105298;28;20050;-48
2022/01/29 04:24:15;;;;;;;2.17;1.90;;;;;;;17.16;42.99;102351.09;5105198;28;20036;-51
2022/01/29 04:26:41;;;;;;;1.92;1.60;;;;;;;17.16;42.93;102351.09;5105053;28;20028;-48
2022/01/29 04:29:08;;;;;;;2.25;2.05;;;;;;;17.15;42.86;102350.25;5105737;28;20024;-53
2022/01/29 04:31:44;;;;;;;1.80;1.70;;;;;;;17.15;43.04;102342.19;5105961;28;20036;-49
2022/01/29 04:34:10;;;;;;;1.50;1.40;;;;;;;17.15;42.99;102344.88;5106220;28;20048;-49
2022/01/29 04:36:35;;;;;;;1.90;1.73;;;;;;;17.16;42.79;102337.66;5105180;28;20149;-49
2022/01/29 04:39:00;;;;;;;1.95;1.75;;;;;;;17.15;42.91;102325.19;5105561;28;20038;-47
2022/01/29 04:41:25;;;;;;;1.55;1.45;;;;;;;17.11;43.06;102308.47;5104870;28;20020;-49
2022/01/29 04:43:51;;;;;;;1.80;1.63;;;;;;;17.15;42.88;102320.69;5086950;28;20504;-50
2022/01/29 04:46:16;;;;;;;1.63;1.52;;;;;;;17.15;43.05;102314.44;5105481;28;20039;-45
2022/01/29 04:48:41;;;;;;;2.72;2.40;;;;;;;17.15;43.13;102309.06;5098491;28;20094;-50
2022/01/29 04:51:06;;;;;;;1.73;1.63;;;;;;;17.15;43.08;102307.25;5084940;28;20047;-48
2022/01/29 04:53:32;;;;;;;2.25;1.50;;;;;;;17.10;43.24;102308.59;5085192;28;20115;-48
2022/01/29 04:55:57;;;;;;;1.73;1.63;;;;;;;17.14;43.05;102300.16;5084226;28;20028;-48
2022/01/29 04:58:22;;;;;;;1.70;1.60;;;;;;;17.13;42.95;102297.59;5084854;28;20032;-47
2022/01/29 05:00:47;;;;;;;1.70;1.60;;;;;;;17.14;43.11;102297.47;5084989;28;20108;-47
2022/01/29 05:03:14;;;;;;;1.60;1.50;;;;;;;17.15;43.05;102298.31;5085005;28;20128;-46
2022/01/29 05:05:40;;;;;;;1.77;1.67;;;;;;;17.14;43.02;102292.09;5084486;28;20052;-45
2022/01/29 05:08:06;;;;;;;1.85;1.42;;;;;;;17.15;43.21;102295.63;5088449;28;20036;-48
2022/01/29 05:10:32;;;;;;;1.60;1.50;;;;;;;17.14;43.07;102300.16;5104334;28;20039;-47
2022/01/29 05:13:05;;;;;;;2.05;1.67;;;;;;;17.15;43.08;102309.06;5104804;28;20032;-47
2022/01/29 05:15:38;;;;;;;1.50;1.40;;;;;;;17.16;43.07;102302.72;5104612;28;20054;-47
2022/01/29 05:29:00;;;;;;;2.20;1.77;;;;;;;17.16;43.01;102302.72;5104622;28;20039;-48
2022/01/29 05:31:25;;;;;;;1.63;1.52;;;;;;;17.16;43.18;102291.97;5104570;28;20028;-47
2022/01/29 05:33:51;;;;;;;1.52;1.42;;;;;;;17.16;43.18;102294.66;5104332;28;20416;-46
2022/01/29 05:36:16;;;;;;;1.45;1.35;;;;;;;17.15;43.01;102291.13;5104092;28;20063;-48
2022/01/29 05:38:43;;;;;;;1.35;1.25;;;;;;;17.16;43.19;102289.28;5103991;28;20054;-51
2022/01/29 05:41:08;;;;;;;1.50;1.40;;;;;;;17.13;43.09;102286.84;5103813;28;20024;-49
2022/01/29 05:43:33;;;;;;;1.58;1.48;;;;;;;17.14;43.28;102289.41;5104166;28;20034;-48
2022/01/29 05:45:58;;;;;;;1.50;1.40;;;;;;;17.16;43.21;102290.16;5103771;28;20075;-48
2022/01/29 05:48:23;;;;;;;1.50;1.40;;;;;;;17.15;43.15;102279.50;5099627;28;20043;-47
2022/01/29 05:50:49;;;;;;;1.60;1.50;;;;;;;17.16;43.26;102287.47;5084008;28;20036;-47
2022/01/29 05:53:14;;;;;;;1.88;1.50;;;;;;;17.16;43.14;102287.47;5083568;28;20092;-47
2022/01/29 05:55:39;;;;;;;1.55;1.33;;;;;;;17.17;43.19;102280.25;5083432;28;20524;-49
2022/01/29 05:58:05;;;;;;;1.42;1.20;;;;;;;17.18;43.25;102273.91;5083516;28;20032;-50
2022/01/29 06:00:30;;;;;;;1.85;1.55;;;;;;;17.18;43.24;102269.38;5083917;28;20035;-49
2022/01/29 06:03:04;;;;;;;1.48;1.30;;;;;;;17.18;43.20;102261.31;5083826;28;20036;-52
2022/01/29 06:05:29;;;;;;;2.13;1.42;;;;;;;17.15;43.24;102253.50;5082785;28;20072;-44
2022/01/29 06:07:55;;;;;;;1.63;1.30;;;;;;;17.18;43.27;102255.09;5082070;28;20051;-48
2022/01/29 06:10:20;;;;;;;2.28;1.52;;;;;;;17.16;43.24;102257.03;5083467;28;20043;-46
2022/01/29 06:12:58;;;;;;;2.03;1.42;;;;;;;17.19;43.36;102265.69;5087788;28;20035;-47
2022/01/29 06:15:23;;;;;;;1.95;1.40;;;;;;;17.19;43.28;102249.56;5103203;28;20027;-48
2022/01/29 06:17:49;;;;;;;1.75;1.40;;;;;;;17.19;43.44;102243.34;5102933;28;20028;-51
2022/01/29 06:20:14;;;;;;;1.77;1.30;;;;;;;17.16;43.37;102231.03;5103046;28;20077;-50
2022/01/29 06:22:42;;;;;;;2.58;1.80;;;;;;;17.20;43.47;102235.19;5102495;28;20032;-48
2022/01/29 06:25:08;;;;;;;1.73;1.60;;;;;;;17.21;43.56;102233.34;5094087;28;20021;-49
2022/01/29 06:27:33;;;;;;;1.75;1.30;;;;;;;17.23;43.50;102231.38;5082246;28;20085;-49
2022/01/29 06:29:58;;;;;;;1.52;1.25;;;;;;;17.23;43.59;102226.00;5083217;28;20036;-50
2022/01/29 06:32:23;;;;;;;1.38;1.27;;;;;;;17.24;43.63;102220.47;5082934;28;20031;-48
2022/01/29 06:34:49;;;;;;;1.75;1.52;;;;;;;17.27;43.72;102218.53;5088410;28;20012;-52
2022/01/29 06:37:14;;;;;;;1.90;1.40;;;;;;;17.27;43.79;102208.63;5101660;28;20485;-52
2022/01/29 06:39:39;;;;;;;1.77;1.38;;;;;;;17.29;43.93;102217.44;5088213;28;20032;-48
2022/01/29 06:42:04;;;;;;;2.03;1.70;;;;;;;17.31;44.09;102209.25;5093035;28;20040;-51
2022/01/29 06:44:30;;;;;;;1.88;1.40;;;;;;;17.31;43.97;102204.72;5101539;28;20050;-51
2022/01/29 06:46:55;;;;;;;1.48;1.30;;;;;;;17.31;44.07;102212.78;5105210;28;20024;-52
2022/01/29 06:49:20;;;;;;;1.73;1.40;;;;;;;17.32;44.14;102208.25;5106829;28;20024;-48
2022/01/29 06:51:45;;;;;;;1.70;1.40;;;;;;;17.34;44.27;102199.09;5106563;28;20028;-52
2022/01/29 06:54:10;;;;;;;2.17;1.63;;;;;;;17.36;44.25;102196.28;5104855;28;20035;-47
2022/01/29 06:56:36;;;;;;;2.05;1.40;;;;;;;17.35;44.40;102194.56;5086172;28;20043;-48
2022/01/29 06:59:01;;;;;;;1.52;1.40;;;;;;;17.36;44.48;102197.13;5079156;28;20060;-48
2022/01/29 07:01:26;;;;;;;1.77;1.40;;;;;;;17.37;44.45;102201.50;5102999;28;20028;-49
2022/01/29 07:03:51;;;;;;;1.73;1.27;;;;;;;17.38;44.40;102194.31;5091318;28;20513;-49
2022/01/29 07:06:17;;;;;;;1.75;1.50;;;;;;;17.40;44.42;102201.25;5090392;28;20075;-48
2022/01/29 07:08:42;;;;;;;1.70;1.38;;;;;;;17.36;44.49;102194.44;5105308;28;20034;-49
2022/01/29 07:11:07;;;;;;;1.95;1.40;;;;;;;17.39;44.49;102180.75;5105986;28;20034;-50
2022/01/29 07:13:32;;;;;;;1.90;1.30;;;;;;;17.42;44.50;102187.72;5106847;28;20020;-48
2022/01/29 07:15:58;;;;;;;1.50;1.40;;;;;;;17.41;44.62;102178.75;5106642;28;20028;-46
2022/01/29 07:18:23;;;;;;;1.90;1.38;;;;;;;17.42;44.70;102185.88;5087976;28;20028;-51
2022/01/29 07:20:48;;;;;;;1.92;1.20;;;;;;;17.38;44.44;102179.03;5105727;28;20032;-49
2022/01/29 07:23:14;;;;;;;2.00;1.35;;;;;;;17.39;44.46;102179.91;5085977;28;20028;-48
2022/01/29 07:25:39;;;;;;;1.88;1.50;;;;;;;17.45;44.72;102187.44;5093486;28;20491;-47
2022/01/29 07:28:04;;;;;;;1.35;1.25;;;;;;;17.43;44.77;102189.41;5105882;28;20026;-50
2022/01/29 07:30:29;;;;;;;3.08;1.83;;;;;;;17.45;44.85;102185.59;5106369;28;20023;-48
2022/01/29 07:32:55;;;;;;;2.08;1.52;;;;;;;17.48;44.82;102189.88;5096755;28;20031;-50
2022/01/29 07:35:20;;;;;;;2.65;1.60;;;;;;;17.51;44.78;102195.00;5098937;28;20086;-48
2022/01/29 07:37:45;;;;;;;2.70;2.13;;;;;;;17.53;44.75;102184.09;5105814;28;20028;-50
2022/01/29 07:40:10;;;;;;;4.28;1.85;;;;;;;17.55;44.76;102180.31;5106725;28;20031;-51
2022/01/29 07:42:36;;;;;;;4.28;1.88;;;;;;;17.58;44.74;102193.50;5105730;28;20035;-46
2022/01/29 07:45:02;;;;;;;1.52;1.35;;;;;;;17.59;44.65;102186.31;5106763;28;20038;-47
2022/01/29 07:47:27;;;;;;;2.97;2.33;;;;;;;17.60;44.51;102188.00;5099185;28;20048;-48
2022/01/29 07:49:53;;;;;;;2.70;1.77;;;;;;;17.61;44.58;102181.63;5102857;28;20542;-50
2022/01/29 07:52:18;;;;;;;2.83;1.65;;;;;;;17.63;44.56;102183.22;5104980;28;20032;-51
2022/01/29 07:54:43;;;;;;;2.67;1.50;;;;;;;17.63;44.51;102177.84;5087555;28;20047;-50
2022/01/29 07:57:08;;;;;;;2.65;1.83;;;;;;;17.64;44.57;102176.00;5104900;28;20039;-50
2022/01/29 07:59:33;;;;;;;3.33;1.58;;;;;;;17.65;44.67;102180.41;5106052;28;20028;-52
2022/01/29 08:01:59;;;;;;;2.53;1.77;;;;;;;17.65;44.61;102173.16;5106487;28;20024;-53
2022/01/29 08:04:24;;;;;;;2.60;1.77;;;;;;;17.64;44.80;102157.19;5106274;28;20043;-48
2022/01/29 08:06:53;;;;;;;1.52;1.40;;;;;;;17.67;44.61;102170.34;5105217;28;20129;-52
2022/01/29 08:09:18;;;;;;;2.40;1.40;;;;;;;17.67;44.58;102165.84;5105950;28;20468;-48
2022/01/29 08:11:43;;;;;;;1.92;1.60;;;;;;;17.68;44.64;102162.16;5105495;28;20043;-50
2022/01/29 08:14:09;;;;;;;1.88;1.40;;;;;;;17.69;44.36;102152.25;5106055;28;20027;-49
2022/01/29 08:16:34;;;;;;;1.98;1.42;;;;;;;17.68;44.49;102154.09;5106106;28;20076;-51
2022/01/29 08:18:59;;;;;;;1.98;1.30;;;;;;;17.69;44.55;102153.09;5105562;28;20051;-49
2022/01/29 08:21:25;;;;;;;1.60;1.35;;;;;;;17.69;44.29;102150.41;5105493;28;20050;-47
2022/01/29 08:23:50;;;;;;;2.00;1.30;;;;;;;17.70;44.40;102149.44;5105746;28;20028;-53
2022/01/29 08:26:15;;;;;;;2.35;1.40;;;;;;;17.70;44.38;102143.19;5105138;28;20115;-48
2022/01/29 08:28:40;;;;;;;3.95;1.70;;;;;;;17.70;44.26;102140.50;5104785;28;20111;-50
2022/01/29 08:31:06;;;;;;;2.20;1.38;;;;;;;17.70;44.38;102144.03;5105414;28;20095;-52
2022/01/29 08:33:32;;;;;;;1.80;1.30;;;;;;;17.70;44.53;102140.50;5105767;28;20134;-48
2022/01/29 08:35:58;;;;;;;2.40;1.45;;;;;;;17.71;44.32;102134.13;5104980;28;20038;-52
2022/01/29 08:38:24;;;;;;;1.40;1.10;;;;;;;17.71;44.38;102134.13;5104566;28;20088;-51
2022/01/29 08:40:49;;;;;;;2.15;1.35;;;;;;;17.73;44.24;102126.81;5104845;28;20552;-52
2022/01/29 08:43:15;;;;;;;2.05;1.20;;;;;;;17.72;44.25;102123.25;5105326;28;20043;-49
2022/01/29 08:45:40;;;;;;;1.70;1.30;;;;;;;17.73;44.39;102132.19;5105042;28;20020;-50
2022/01/29 08:48:05;;;;;;;2.13;1.27;;;;;;;17.74;44.45;102121.31;5103150;28;20054;-52
2022/01/29 08:50:31;;;;;;;1.90;1.35;;;;;;;17.76;44.45;102125.72;5085094;28;20051;-49
2022/01/29 08:52:56;;;;;;;2.20;1.30;;;;;;;17.77;44.30;102124.75;5105010;28;20059;-52
2022/01/29 08:55:21;;;;;;;1.25;1.00;;;;;;;17.78;44.24;102119.22;5105338;28;20084;-49
2022/01/29 08:57:47;;;;;;;1.52;1.40;;;;;;;17.79;44.36;102114.69;5104600;28;20027;-50
2022/01/29 09:00:13;;;;;;;2.08;1.33;;;;;;;17.81;44.23;102108.19;5105317;28;20024;-50
2022/01/29 09:02:38;;;;;;;2.00;1.27;;;;;;;17.83;44.16;102116.97;5105256;28;20042;-52
2022/01/29 09:05:04;;;;;;;1.80;1.30;;;;;;;17.84;44.24;102107.06;5104857;28;20100;-50
2022/01/29 09:07:29;;;;;;;2.45;1.40;;;;;;;17.84;44.32;102110.63;5099438;28;20063;-49
2022/01/29 09:09:55;;;;;;;2.38;1.40;;;;;;;17.84;44.24;102112.44;5084162;28;20068;-48
2022/01/29 09:12:21;;;;;;;1.20;1.10;;;;;;;17.84;44.34;102105.25;5084310;28;20028;-47
2022/01/29 09:14:46;;;;;;;1.33;1.00;;;;;;;17.86;44.30;102114.03;5084770;28;20058;-51
2022/01/29 09:17:11;;;;;;;1.88;1.40;;;;;;;17.87;44.07;102114.88;5084753;28;20024;-47
2022/01/29 09:19:37;;;;;;;1.60;1.20;;;;;;;17.86;44.00;102107.81;5084198;28;20555;-50
2022/01/29 09:22:03;;;;;;;3.10;1.27;;;;;;;17.86;44.19;102089.81;5083952;28;20088;-49
2022/01/29 09:24:28;;;;;;;2.30;1.20;;;;;;;17.86;44.12;102100.59;5084788;28;20032;-48
2022/01/29 09:26:53;;;;;;;1.48;1.20;;;;;;;17.87;44.17;102091.50;5083571;28;20047;-49
2022/01/29 09:29:18;;;;;;;1.67;1.13;;;;;;;17.88;44.30;102089.66;5084155;28;20072;-49
2022/01/29 09:31:44;;;;;;;1.73;1.17;;;;;;;17.89;44.11;102086.03;5084239;28;20028;-52
2022/01/29 09:34:09;;;;;;;2.63;1.10;;;;;;;17.88;43.96;102085.19;5084205;28;20029;-49
2022/01/29 09:36:34;;;;;;;1.35;1.00;;;;;;;17.89;44.10;102073.41;5085387;28;20081;-51
2022/01/29 09:38:59;;;;;;;1.60;1.10;;;;;;;17.90;44.32;102076.97;5103851;28;20032;-50
2022/01/29 09:41:26;;;;;;;2.05;1.10;;;;;;;17.91;44.13;102076.81;5103852;28;20025;-49
2022/01/29 09:43:52;;;;;;;2.22;1.35;;;;;;;17.91;44.16;102066.03;5084076;28;20024;-52
2022/01/29 09:46:17;;;;;;;2.20;1.30;;;;;;;17.93;44.16;102065.94;5084002;28;20051;-52
2022/01/29 09:48:44;;;;;;;2.00;1.17;;;;;;;17.93;44.06;102071.31;5090695;28;20028;-50
2022/01/29 09:51:12;;;;;;;1.60;1.00;;;;;;;17.94;44.08;102070.31;5104015;28;20024;-49
2022/01/29 09:53:39;;;;;;;2.47;1.43;;;;;;;17.91;44.02;102052.59;5104131;28;20091;-52
2022/01/29 09:56:05;;;;;;;2.40;1.13;;;;;;;17.89;44.18;102051.91;5103830;28;20018;-51
2022/01/29 09:58:30;;;;;;;1.85;1.10;;;;;;;17.93;44.22;102056.03;5104009;28;20589;-49
2022/01/29 10:00:56;;;;;;;2.00;1.00;;;;;;;17.95;44.03;102039.72;5104232;28;20400;-48
2022/01/29 10:03:21;;;;;;;2.65;1.42;;;;;;;17.96;44.12;102039.59;5104178;28;20590;-52
2022/01/29 10:05:52;;;;;;;1.90;1.10;;;;;;;17.98;44.04;102036.78;5103661;28;20048;-52
2022/01/29 10:08:18;;;;;;;1.20;1.00;;;;;;;17.98;44.13;102031.41;5102779;28;20128;-50
2022/01/29 10:10:46;;;;;;;1.65;1.30;;;;;;;18.01;44.00;102024.88;5103093;28;20042;-47
2022/01/29 10:13:36;;;;;;;2.40;1.15;;;;;;;18.03;43.91;102017.53;5104039;28;20039;-50
2022/01/29 10:16:20;;;;;;;1.15;1.00;;;;;;;18.02;43.93;102013.16;5103626;28;20027;-51
2022/01/29 10:19:12;;;;;;;2.80;1.40;;;;;;;18.04;43.81;102008.47;5103722;28;20046;-51
2022/01/29 10:21:47;;;;;;;1.65;1.10;;;;;;;18.03;43.97;102010.31;5102560;28;20080;-48
2022/01/29 10:24:14;;;;;;;2.28;1.10;;;;;;;18.03;44.07;102006.78;5104102;28;20106;-49
2022/01/29 10:26:44;;;;;;;1.42;1.02;;;;;;;18.03;44.09;102001.38;5103029;28;20027;-51
2022/01/29 10:29:22;;;;;;;2.53;1.10;;;;;;;18.05;43.96;102004.78;5103543;28;20453;-49
2022/01/29 10:31:49;;;;;;;2.08;1.20;;;;;;;18.03;43.90;101999.53;5103644;28;20028;-50
2022/01/29 10:34:28;;;;;;;2.35;1.08;;;;;;;18.06;43.92;101999.28;5103904;28;20028;-48
2022/01/29 10:37:11;;;;;;;1.73;1.25;;;;;;;18.09;43.86;102000.81;5102354;28;20020;-50
2022/01/29 10:39:36;;;;;;;1.67;1.00;;;;;;;18.08;44.04;101999.13;5103072;28;20023;-50
2022/01/29 10:42:22;;;;;;;2.45;1.30;;;;;;;18.11;43.68;101991.66;5102546;28;20028;-50
2022/01/29 10:44:50;;;;;;;1.80;1.15;;;;;;;18.10;43.73;101989.09;5103772;28;20028;-49
2022/01/29 10:47:15;;;;;;;2.05;1.00;;;;;;;18.15;43.74;101976.06;5103674;28;20023;-50
2022/01/29 10:49:50;;;;;;;1.65;1.20;;;;;;;18.17;43.63;101974.94;5103381;28;20024;-51
2022/01/29 10:52:16;;;;;;;1.70;1.10;;;;;;;18.16;43.75;101961.63;5103197;28;20024;-49
2022/01/29 10:54:44;;;;;;;2.35;1.13;;;;;;;18.21;43.67;101964.75;5103164;28;20082;-53
2022/01/29 10:57:16;;;;;;;3.05;1.25;;;;;;;18.22;43.73;101974.50;5102422;28;20021;-49
2022/01/29 10:59:47;;;;;;;2.15;1.08;;;;;;;18.24;43.58;101967.16;5103375;28;20021;-51
2022/01/29 11:02:12;;;;;;;2.78;1.30;;;;;;;18.23;43.63;101966.31;5103468;28;20024;-51
2022/01/29 11:04:39;;;;;;;2.67;1.25;;;;;;;18.24;43.69;101962.63;5085101;28;20577;-51
2022/01/29 11:07:10;;;;;;;1.42;1.10;;;;;;;18.24;43.72;101945.63;5083857;28;20524;-49
2022/01/29 11:09:40;;;;;;;3.08;1.30;;;;;;;18.24;43.82;101941.09;5086001;28;20500;-50
2022/01/29 11:12:06;;;;;;;1.65;1.10;;;;;;;18.28;43.88;101956.97;5102581;28;20052;-48
2022/01/29 11:14:32;;;;;;;2.28;1.00;;;;;;;18.30;43.64;101963.91;5103239;28;20032;-52
2022/01/29 11:16:58;;;;;;;2.13;1.02;;;;;;;18.30;43.76;101950.44;5103163;28;20075;-50
2022/01/29 11:19:23;;;;;;;2.63;1.30;;;;;;;18.35;43.68;101960.78;5103024;28;20024;-52
2022/01/29 11:21:51;;;;;;;1.95;1.20;;;;;;;18.37;43.75;101956.97;5102463;28;20032;-51
2022/01/29 11:24:22;;;;;;;2.05;1.30;;;;;;;18.43;43.52;101947.50;5085258;28;20352;-50
2022/01/29 11:26:47;;;;;;;3.10;1.20;;;;;;;18.44;43.70;101951.91;5102155;28;20024;-50
2022/01/29 11:29:29;;;;;;;2.03;1.17;;;;;;;18.44;43.78;101941.13;5084746;28;20054;-52
2022/01/29 11:32:22;;;;;;;2.58;1.20;;;;;;;18.49;43.71;101942.41;5103455;28;20024;-49
2022/01/29 11:35:02;;;;;;;1.48;1.10;;;;;;;18.47;43.60;101916.59;5106962;28;20024;-51
2022/01/29 11:37:39;;;;;;;3.33;1.33;;;;;;;18.45;43.48;101923.97;5105931;28;20028;-47